createdAt,value
2023-04-25T00:01:11.566Z,93932.53
2023-04-25T00:03:38.874Z,93930.00
2023-04-25T00:06:06.051Z,93918.44
2023-04-25T00:08:33.110Z,93924.81
2023-04-25T00:11:01.694Z,93920.75
2023-04-25T00:13:28.690Z,93919.78
2023-04-25T00:15:58.392Z,93915.16
2023-04-25T00:18:26.390Z,93923.06
2023-04-25T00:20:53.326Z,93921.50
2023-04-25T00:23:20.315Z,93924.50
2023-04-25T00:25:50.474Z,93922.78
2023-04-25T00:28:17.222Z,93915.34
2023-04-25T00:30:44.017Z,93915.53
2023-04-25T00:33:11.147Z,93909.34
2023-04-25T00:35:38.620Z,93913.19
2023-04-25T00:38:07.964Z,93909.34
2023-04-25T00:40:34.729Z,93912.72
2023-04-25T00:43:01.362Z,93905.19
2023-04-25T00:45:31.478Z,93909.19
2023-04-25T00:47:58.520Z,93911.47
2023-04-25T00:50:25.274Z,93907.69
2023-04-25T00:53:35.947Z,93910.63
2023-04-25T00:56:02.938Z,93911.25
2023-04-25T00:58:32.379Z,93910.50
2023-04-25T01:00:59.019Z,93919.97
2023-04-25T01:03:26.267Z,93921.31
2023-04-25T01:05:53.045Z,93913.59
2023-04-25T01:08:21.005Z,93917.94
2023-04-25T01:10:47.625Z,93911.84
2023-04-25T01:13:15.411Z,93914.59
2023-04-25T01:15:42.389Z,93917.13
2023-04-25T01:18:09.061Z,93915.00
2023-04-25T01:20:36.072Z,93913.22
2023-04-25T01:23:02.716Z,93927.38
2023-04-25T01:25:29.955Z,93936.69
2023-04-25T01:27:58.614Z,93944.31
2023-04-25T01:30:27.649Z,93946.78
2023-04-25T01:32:57.886Z,93939.84
2023-04-25T01:35:24.708Z,93936.75
2023-04-25T01:37:51.772Z,93946.38
2023-04-25T01:40:21.654Z,93942.81
2023-04-25T01:42:52.682Z,93949.16
2023-04-25T01:45:22.092Z,93944.19
2023-04-25T01:47:48.785Z,93947.56
2023-04-25T01:50:15.805Z,93935.03
2023-04-25T01:52:42.762Z,93933.31
2023-04-25T01:55:12.565Z,93916.97
2023-04-25T01:57:49.039Z,93911.09
2023-04-25T02:00:18.529Z,93905.00
2023-04-25T02:02:45.594Z,93903.31
2023-04-25T02:05:12.669Z,93900.28
2023-04-25T02:07:39.332Z,93895.44
2023-04-25T02:10:06.406Z,93890.66
2023-04-25T02:12:33.484Z,93891.25
2023-04-25T02:15:00.457Z,93894.16
2023-04-25T02:17:27.115Z,93898.56
2023-04-25T02:19:53.770Z,93908.59
2023-04-25T02:22:20.648Z,93914.72
2023-04-25T02:24:47.567Z,93918.81
2023-04-25T02:27:14.330Z,93917.31
2023-04-25T02:29:41.410Z,93912.19
2023-04-25T02:32:23.674Z,93905.63
2023-04-25T02:34:50.761Z,93901.50
2023-04-25T02:37:17.499Z,93892.75
2023-04-25T02:39:44.561Z,93893.63
2023-04-25T02:42:11.337Z,93895.75
2023-04-25T02:44:43.039Z,93885.28
2023-04-25T02:47:10.109Z,93874.06
2023-04-25T02:49:37.201Z,93871.44
2023-04-25T02:52:04.423Z,93875.78
2023-04-25T02:54:31.392Z,93861.72
2023-04-25T02:56:58.105Z,93852.03
2023-04-25T02:59:25.174Z,93861.06
2023-04-25T03:01:51.881Z,93868.09
2023-04-25T03:04:18.947Z,93870.31
2023-04-25T03:07:01.828Z,93870.41
2023-04-25T03:09:30.076Z,93871.00
2023-04-25T03:11:59.794Z,93871.38
2023-04-25T03:14:26.966Z,93877.16
2023-04-25T03:16:54.045Z,93878.84
2023-04-25T03:19:20.898Z,93880.28
2023-04-25T03:21:47.925Z,93881.00
2023-04-25T03:24:15.044Z,93866.72
2023-04-25T03:26:44.751Z,93869.88
2023-04-25T03:29:11.840Z,93872.13
2023-04-25T03:31:38.936Z,93862.47
2023-04-25T03:34:06.495Z,93867.09
2023-04-25T03:36:33.573Z,93866.41
2023-04-25T03:39:00.416Z,93864.41
2023-04-25T03:41:30.093Z,93864.06
2023-04-25T03:43:57.207Z,93863.16
2023-04-25T03:46:24.459Z,93873.97
2023-04-25T03:48:51.269Z,93871.34
2023-04-25T03:51:18.469Z,93863.78
2023-04-25T03:53:45.231Z,93867.03
2023-04-25T03:56:11.935Z,93866.16
2023-04-25T03:58:39.124Z,93876.03
2023-04-25T04:01:05.863Z,93867.44
2023-04-25T04:03:32.663Z,93871.97
2023-04-25T04:05:59.628Z,93866.97
2023-04-25T04:08:26.378Z,93865.03
2023-04-25T04:10:53.572Z,93863.72
2023-04-25T04:13:21.376Z,93863.75
2023-04-25T04:15:48.445Z,93857.44
2023-04-25T04:18:15.364Z,93854.91
2023-04-25T04:20:42.125Z,93861.41
2023-04-25T04:23:09.980Z,93859.63
2023-04-25T04:25:36.804Z,93860.97
2023-04-25T04:28:04.078Z,93864.06
2023-04-25T04:30:35.709Z,93871.84
2023-04-25T04:33:03.199Z,93873.91
2023-04-25T04:35:30.215Z,93871.59
2023-04-25T04:37:57.403Z,93861.44
2023-04-25T04:40:26.069Z,93880.38
2023-04-25T04:42:53.178Z,93875.06
2023-04-25T04:45:21.386Z,93871.25
2023-04-25T04:47:48.411Z,93872.31
2023-04-25T04:50:15.567Z,93879.50
2023-04-25T04:52:42.396Z,93877.66
2023-04-25T04:55:10.448Z,93885.38
2023-04-25T04:57:37.145Z,93882.00
2023-04-25T05:00:05.966Z,93881.78
2023-04-25T05:02:39.076Z,93886.84
2023-04-25T05:05:06.408Z,93882.66
2023-04-25T05:07:33.199Z,93885.53
2023-04-25T05:10:00.353Z,93890.38
2023-04-25T05:12:27.093Z,93891.44
2023-04-25T05:14:55.139Z,93885.63
2023-04-25T05:17:24.995Z,93884.38
2023-04-25T05:19:52.090Z,93880.59
2023-04-25T05:22:18.762Z,93874.44
2023-04-25T05:24:45.871Z,93887.94
2023-04-25T05:27:17.887Z,93888.03
2023-04-25T05:29:47.673Z,93884.94
2023-04-25T05:32:14.851Z,93880.38
2023-04-25T05:34:44.634Z,93888.09
2023-04-25T05:37:13.522Z,93890.84
2023-04-25T05:39:40.613Z,93893.94
2023-04-25T05:42:10.274Z,93901.72
2023-04-25T05:44:36.989Z,93894.59
2023-04-25T05:47:04.159Z,93907.78
2023-04-25T05:49:31.335Z,93919.75
2023-04-25T05:51:58.027Z,93919.06
2023-04-25T05:54:24.777Z,93915.63
2023-04-25T05:56:57.322Z,93914.88
2023-04-25T05:59:24.354Z,93919.28
2023-04-25T06:01:56.516Z,93909.69
2023-04-25T06:04:28.323Z,93919.69
2023-04-25T06:06:55.432Z,93919.06
2023-04-25T06:09:25.148Z,93916.59
2023-04-25T06:11:52.224Z,93916.47
2023-04-25T06:14:19.723Z,93928.00
2023-04-25T06:16:46.765Z,93924.06
2023-04-25T06:19:16.298Z,93916.09
2023-04-25T06:21:44.363Z,93919.75
2023-04-25T06:24:11.279Z,93932.88
2023-04-25T06:26:38.118Z,93932.91
2023-04-25T06:29:05.227Z,93931.88
2023-04-25T06:31:32.346Z,93938.13
2023-04-25T06:34:06.966Z,93932.28
2023-04-25T06:36:40.972Z,93930.63
2023-04-25T06:39:10.681Z,93934.66
2023-04-25T06:41:37.711Z,93935.94
2023-04-25T06:44:05.179Z,93931.88
2023-04-25T06:46:32.162Z,93935.03
2023-04-25T06:48:59.261Z,93927.06
2023-04-25T06:51:26.047Z,93927.22
2023-04-25T06:53:53.061Z,93924.69
2023-04-25T06:56:20.166Z,93922.75
2023-04-25T06:58:47.215Z,93931.53
2023-04-25T07:01:14.377Z,93928.06
2023-04-25T07:03:41.590Z,93923.03
2023-04-25T07:06:08.769Z,93926.63
2023-04-25T07:08:35.788Z,93927.59
2023-04-25T07:11:02.543Z,93921.22
2023-04-25T07:13:29.587Z,93922.94
2023-04-25T07:15:57.410Z,93927.41
2023-04-25T07:18:24.310Z,93928.75
2023-04-25T07:20:51.484Z,93927.47
2023-04-25T07:23:18.676Z,93937.88
2023-04-25T07:26:10.314Z,93932.31
2023-04-25T07:28:37.745Z,93928.69
2023-04-25T07:31:04.578Z,93933.03
2023-04-25T07:33:31.423Z,93936.16
2023-04-25T07:36:00.368Z,93940.72
2023-04-25T07:38:28.394Z,93954.41
2023-04-25T07:40:55.148Z,93954.28
2023-04-25T07:43:22.117Z,93952.81
2023-04-25T07:45:50.991Z,93947.31
2023-04-25T07:48:18.495Z,93946.97
2023-04-25T07:50:45.287Z,93949.13
2023-04-25T07:53:18.838Z,93952.00
2023-04-25T07:55:45.957Z,93948.75
2023-04-25T07:58:13.050Z,93944.81
2023-04-25T08:00:42.041Z,93952.38
2023-04-25T08:03:10.676Z,93949.47
2023-04-25T08:05:39.315Z,93963.19
2023-04-25T08:08:06.163Z,93965.63
2023-04-25T08:10:33.786Z,93965.78
2023-04-25T08:13:00.569Z,93970.94
2023-04-25T08:15:27.625Z,93981.56
2023-04-25T08:18:00.968Z,93980.38
2023-04-25T08:20:28.972Z,93985.75
2023-04-25T08:22:56.062Z,93994.38
2023-04-25T08:25:22.890Z,93990.50
2023-04-25T08:27:50.128Z,94002.94
2023-04-25T08:30:17.201Z,93999.94
2023-04-25T08:32:45.854Z,94002.47
2023-04-25T08:35:12.604Z,94006.13
2023-04-25T08:37:39.346Z,94008.66
2023-04-25T08:40:06.756Z,94015.66
2023-04-25T08:42:34.811Z,94019.78
2023-04-25T08:45:04.381Z,94026.16
2023-04-25T08:47:33.121Z,94035.06
2023-04-25T08:50:00.520Z,94029.69
2023-04-25T08:52:28.732Z,94043.41
2023-04-25T08:54:55.471Z,94037.88
2023-04-25T08:57:22.391Z,94035.41
2023-04-25T08:59:49.089Z,94042.19
2023-04-25T09:02:16.360Z,94033.56
2023-04-25T09:04:48.997Z,94051.28
2023-04-25T09:07:16.109Z,94045.09
2023-04-25T09:09:45.434Z,94051.53
2023-04-25T09:12:13.386Z,94058.00
2023-04-25T09:14:40.161Z,94061.47
2023-04-25T09:17:06.959Z,94065.22
2023-04-25T09:19:41.038Z,94080.97
2023-04-25T09:22:08.758Z,94100.97
2023-04-25T09:24:45.231Z,94119.31
2023-04-25T09:27:13.562Z,94128.69
2023-04-25T09:29:41.164Z,94130.81
2023-04-25T09:32:34.214Z,94129.34
2023-04-25T09:35:01.155Z,94136.91
2023-04-25T09:37:29.348Z,94131.41
2023-04-25T09:40:00.033Z,94128.31
2023-04-25T09:42:27.552Z,94133.72
2023-04-25T09:44:55.212Z,94126.41
2023-04-25T09:47:22.139Z,94119.59
2023-04-25T09:49:48.991Z,94119.78
2023-04-25T09:52:17.104Z,94108.97
2023-04-25T09:54:44.530Z,94105.78
2023-04-25T09:57:12.924Z,94103.91
2023-04-25T09:59:40.842Z,94109.25
2023-04-25T10:02:08.434Z,94107.72
2023-04-25T10:04:35.947Z,94114.94
2023-04-25T10:07:09.579Z,94121.00
2023-04-25T10:09:40.028Z,94128.53
2023-04-25T10:12:08.020Z,94122.66
2023-04-25T10:14:34.989Z,94125.34
2023-04-25T10:17:03.115Z,94131.97
2023-04-25T10:19:29.953Z,94131.13
2023-04-25T10:22:03.633Z,94133.78
2023-04-25T10:24:30.385Z,94129.50
2023-04-25T10:26:57.373Z,94133.09
2023-04-25T10:29:30.347Z,94139.59
2023-04-25T10:31:57.247Z,94134.72
2023-04-25T10:34:44.624Z,94134.59
2023-04-25T10:37:25.507Z,94140.00
2023-04-25T10:39:52.479Z,94141.41
2023-04-25T10:42:20.307Z,94137.31
2023-04-25T10:45:03.303Z,94147.22
2023-04-25T10:47:36.837Z,94144.19
2023-04-25T10:50:15.282Z,94148.31
2023-04-25T10:52:42.286Z,94145.00
2023-04-25T10:55:09.471Z,94147.13
2023-04-25T10:57:43.840Z,94144.03
2023-04-25T11:00:11.712Z,94154.63
2023-04-25T11:02:42.801Z,94154.38
2023-04-25T11:05:10.281Z,94156.56
2023-04-25T11:08:04.006Z,94155.06
2023-04-25T11:10:34.303Z,94162.13
2023-04-25T11:13:02.373Z,94155.69
2023-04-25T11:15:30.298Z,94141.69
2023-04-25T11:17:57.097Z,94151.19
2023-04-25T11:20:26.045Z,94141.53
2023-04-25T11:22:52.937Z,94142.09
2023-04-25T11:25:20.385Z,94141.44
2023-04-25T11:27:50.790Z,94133.94
2023-04-25T11:30:17.478Z,94129.03
2023-04-25T11:32:44.292Z,94129.72
2023-04-25T11:35:12.395Z,94133.47
2023-04-25T11:37:42.713Z,94133.94
2023-04-25T11:40:12.346Z,94127.88
2023-04-25T11:42:48.074Z,94139.38
2023-04-25T11:45:16.555Z,94138.09
2023-04-25T11:47:43.527Z,94146.31
2023-04-25T11:50:10.865Z,94143.72
2023-04-25T11:52:47.526Z,94134.19
2023-04-25T11:55:18.525Z,94139.81
2023-04-25T11:57:46.249Z,94141.53
2023-04-25T12:00:19.145Z,94126.53
2023-04-25T12:02:47.626Z,94127.72
2023-04-25T12:05:30.385Z,94124.78
2023-04-25T12:07:59.212Z,94122.59
2023-04-25T12:10:25.974Z,94116.72
2023-04-25T12:12:52.665Z,94123.78
2023-04-25T12:15:24.543Z,94136.09
2023-04-25T12:17:52.214Z,94132.50
2023-04-25T12:20:26.119Z,94142.22
2023-04-25T12:22:52.976Z,94136.28
2023-04-25T12:25:38.443Z,94138.88
2023-04-25T12:28:14.101Z,94136.50
2023-04-25T12:31:07.494Z,94135.69
2023-04-25T12:33:36.271Z,94134.97
2023-04-25T12:36:04.586Z,94132.59
2023-04-25T12:38:32.918Z,94137.22
2023-04-25T12:41:00.069Z,94136.50
2023-04-25T12:43:26.922Z,94136.44
2023-04-25T12:45:54.084Z,94128.09
2023-04-25T12:48:21.710Z,94131.69
2023-04-25T12:50:49.207Z,94131.13
2023-04-25T12:53:19.762Z,94135.84
2023-04-25T12:55:46.596Z,94136.09
2023-04-25T12:58:16.923Z,94127.34
2023-04-25T13:00:43.939Z,94138.06
2023-04-25T13:03:11.137Z,94132.00
2023-04-25T13:05:38.360Z,94136.53
2023-04-25T13:08:05.396Z,94134.00
2023-04-25T13:10:32.113Z,94144.31
2023-04-25T13:13:02.699Z,94141.88
2023-04-25T13:15:29.998Z,94143.25
2023-04-25T13:17:56.802Z,94134.03
2023-04-25T13:20:23.628Z,94131.69
2023-04-25T13:22:50.598Z,94135.84
2023-04-25T13:25:17.431Z,94132.97
2023-04-25T13:27:47.185Z,94126.72
2023-04-25T13:30:14.264Z,94130.28
2023-04-25T13:32:41.377Z,94131.81
2023-04-25T13:35:13.432Z,94130.47
2023-04-25T13:37:40.498Z,94132.75
2023-04-25T13:40:09.239Z,94134.41
2023-04-25T13:42:36.152Z,94129.03
2023-04-25T13:45:03.343Z,94128.81
2023-04-25T13:47:30.177Z,94130.91
2023-04-25T13:49:57.282Z,94124.22
2023-04-25T13:52:24.605Z,94120.50
2023-04-25T13:54:51.380Z,94131.25
2023-04-25T13:57:18.636Z,94137.09
2023-04-25T13:59:45.650Z,94132.22
2023-04-25T14:02:13.564Z,94135.53
2023-04-25T14:04:41.199Z,94138.41
2023-04-25T14:07:07.998Z,94141.63
2023-04-25T14:09:34.779Z,94141.63
2023-04-25T14:12:02.245Z,94136.00
2023-04-25T14:14:29.697Z,94131.03
2023-04-25T14:16:56.440Z,94143.50
2023-04-25T14:19:23.195Z,94143.28
2023-04-25T14:21:53.941Z,94147.25
2023-04-25T14:24:21.480Z,94142.22
2023-04-25T14:27:18.340Z,94140.66
2023-04-25T14:29:46.827Z,94135.03
2023-04-25T14:32:13.599Z,94128.19
2023-04-25T14:34:41.836Z,94125.44
2023-04-25T14:37:08.882Z,94130.81
2023-04-25T14:39:35.842Z,94125.63
2023-04-25T14:42:03.055Z,94122.19
2023-04-25T14:44:30.634Z,94118.41
2023-04-25T14:46:57.384Z,94121.59
2023-04-25T14:49:24.802Z,94129.81
2023-04-25T14:51:52.045Z,94128.38
2023-04-25T14:54:19.487Z,94134.34
2023-04-25T14:56:48.216Z,94130.72
2023-04-25T14:59:15.032Z,94137.50
2023-04-25T15:01:42.854Z,94125.56
2023-04-25T15:04:09.863Z,94129.16
2023-04-25T15:06:37.307Z,94126.69
2023-04-25T15:09:04.586Z,94130.94
2023-04-25T15:11:31.841Z,94129.03
2023-04-25T15:13:58.587Z,94126.75
2023-04-25T15:16:25.303Z,94133.09
2023-04-25T15:18:52.513Z,94122.66
2023-04-25T15:21:26.662Z,94124.19
2023-04-25T15:23:54.718Z,94118.88
2023-04-25T15:26:21.767Z,94119.16
2023-04-25T15:28:49.833Z,94117.09
2023-04-25T15:31:17.207Z,94113.72
2023-04-25T15:33:44.920Z,94125.00
2023-04-25T15:36:12.454Z,94132.56
2023-04-25T15:38:39.564Z,94132.00
2023-04-25T15:41:06.883Z,94135.03
2023-04-25T15:43:33.703Z,94136.09
2023-04-25T15:46:00.843Z,94135.22
2023-04-25T15:48:28.981Z,94137.34
2023-04-25T15:50:55.765Z,94139.31
2023-04-25T15:53:24.759Z,94139.72
2023-04-25T15:55:52.024Z,94131.44
2023-04-25T15:58:18.786Z,94133.28
2023-04-25T16:00:46.325Z,94137.56
2023-04-25T16:03:14.001Z,94134.97
2023-04-25T16:05:42.203Z,94138.19
2023-04-25T16:08:19.069Z,94138.56
2023-04-25T16:10:47.413Z,94128.34
2023-04-25T16:13:14.254Z,94142.59
2023-04-25T16:15:42.276Z,94129.88
2023-04-25T16:18:09.271Z,94128.97
2023-04-25T16:20:36.420Z,94141.13
2023-04-25T16:23:03.241Z,94147.22
2023-04-25T16:25:31.500Z,94137.91
2023-04-25T16:27:58.547Z,94141.25
2023-04-25T16:30:25.340Z,94145.63
2023-04-25T16:32:52.116Z,94145.50
2023-04-25T16:35:20.125Z,94141.81
2023-04-25T16:37:50.730Z,94143.78
2023-04-25T16:40:19.331Z,94143.41
2023-04-25T16:42:49.340Z,94140.31
2023-04-25T16:45:18.918Z,94139.63
2023-04-25T16:47:47.100Z,94134.22
2023-04-25T16:50:14.230Z,94132.13
2023-04-25T16:52:41.910Z,94132.03
2023-04-25T16:55:09.830Z,94126.78
2023-04-25T16:57:36.578Z,94126.00
2023-04-25T17:00:05.022Z,94129.19
2023-04-25T17:02:46.291Z,94129.44
2023-04-25T17:05:13.155Z,94138.94
2023-04-25T17:07:40.057Z,94139.97
2023-04-25T17:10:07.430Z,94140.84
2023-04-25T17:12:34.229Z,94151.41
2023-04-25T17:15:01.013Z,94150.31
2023-04-25T17:17:28.464Z,94158.47
2023-04-25T17:19:55.331Z,94147.88
2023-04-25T17:22:22.309Z,94151.38
2023-04-25T17:24:49.513Z,94157.00
2023-04-25T17:27:16.314Z,94156.63
2023-04-25T17:29:43.166Z,94163.06
2023-04-25T17:32:10.748Z,94176.41
2023-04-25T17:34:37.776Z,94163.22
2023-04-25T17:37:04.524Z,94162.09
2023-04-25T17:39:31.273Z,94172.22
2023-04-25T17:42:00.250Z,94173.22
2023-04-25T17:44:27.618Z,94171.38
2023-04-25T17:46:57.228Z,94172.91
2023-04-25T17:49:23.949Z,94170.19
2023-04-25T17:51:50.772Z,94172.66
2023-04-25T17:54:17.963Z,94175.81
2023-04-25T17:56:44.754Z,94171.50
2023-04-25T17:59:11.518Z,94173.81
2023-04-25T18:01:48.537Z,94174.84
2023-04-25T18:04:15.295Z,94172.00
2023-04-25T18:06:42.052Z,94174.06
2023-04-25T18:09:09.630Z,94179.38
2023-04-25T18:11:36.414Z,94180.19
2023-04-25T18:14:03.134Z,94186.06
2023-04-25T18:16:30.054Z,94182.47
2023-04-25T18:18:56.842Z,94190.16
2023-04-25T18:21:24.253Z,94190.38
2023-04-25T18:23:51.892Z,94190.78
2023-04-25T18:26:18.898Z,94201.06
2023-04-25T18:28:47.465Z,94207.44
2023-04-25T18:31:14.257Z,94209.31
2023-04-25T18:33:41.056Z,94212.13
2023-04-25T18:36:08.924Z,94208.28
2023-04-25T18:38:36.761Z,94206.03
2023-04-25T18:41:18.275Z,94209.09
2023-04-25T18:43:51.959Z,94212.91
2023-04-25T18:46:20.213Z,94212.94
2023-04-25T18:48:47.638Z,94220.03
2023-04-25T18:51:14.469Z,94225.44
2023-04-25T18:53:41.763Z,94231.41
2023-04-25T18:56:08.560Z,94229.53
2023-04-25T18:58:35.452Z,94221.75
2023-04-25T19:01:05.159Z,94232.03
2023-04-25T19:03:32.190Z,94224.94
2023-04-25T19:06:00.433Z,94232.84
2023-04-25T19:08:28.344Z,94236.09
2023-04-25T19:10:55.021Z,94234.44
2023-04-25T19:13:22.790Z,94239.28
2023-04-25T19:15:49.583Z,94243.94
2023-04-25T19:18:16.473Z,94240.97
2023-04-25T19:20:43.673Z,94240.69
2023-04-25T19:23:11.125Z,94249.56
2023-04-25T19:25:37.995Z,94248.91
2023-04-25T19:28:06.641Z,94246.44
2023-04-25T19:30:33.401Z,94241.94
2023-04-25T19:33:00.272Z,94243.03
2023-04-25T19:35:27.012Z,94248.91
2023-04-25T19:37:53.748Z,94245.97
2023-04-25T19:40:20.492Z,94242.25
2023-04-25T19:42:47.234Z,94245.03
2023-04-25T19:45:14.449Z,94249.41
2023-04-25T19:47:41.841Z,94251.69
2023-04-25T19:50:10.195Z,94256.06
2023-04-25T19:52:39.005Z,94259.94
2023-04-25T19:55:08.019Z,94259.31
2023-04-25T19:57:35.287Z,94260.69
2023-04-25T20:00:02.627Z,94251.69
2023-04-25T20:02:29.431Z,94247.03
2023-04-25T20:04:56.253Z,94255.41
2023-04-25T20:07:23.038Z,94247.94
2023-04-25T20:09:49.849Z,94251.63
2023-04-25T20:12:17.221Z,94249.19
2023-04-25T20:14:44.025Z,94248.41
2023-04-25T20:17:10.758Z,94251.53
2023-04-25T20:19:38.227Z,94256.66
2023-04-25T20:22:05.972Z,94251.06
2023-04-25T20:24:33.850Z,94253.91
2023-04-25T20:27:02.902Z,94253.41
2023-04-25T20:29:30.194Z,94257.44
2023-04-25T20:31:57.171Z,94260.41
2023-04-25T20:34:24.024Z,94256.84
2023-04-25T20:40:46.566Z,94248.75
2023-04-25T20:43:13.318Z,94253.66
2023-04-25T20:45:40.469Z,94250.16
2023-04-25T20:48:07.235Z,94254.31
2023-04-25T20:50:33.959Z,94258.84
2023-04-25T20:53:01.951Z,94257.13
2023-04-25T20:55:28.752Z,94263.81
2023-04-25T20:57:56.865Z,94258.81
2023-04-25T21:00:30.916Z,94257.38
2023-04-25T21:02:58.288Z,94257.84
2023-04-25T21:05:25.465Z,94255.81
2023-04-25T21:07:52.645Z,94257.53
2023-04-25T21:10:19.713Z,94249.97
2023-04-25T21:12:47.237Z,94252.31
2023-04-25T21:15:14.147Z,94255.34
2023-04-25T21:17:41.324Z,94256.81
2023-04-25T21:20:11.090Z,94256.06
2023-04-25T21:22:38.120Z,94251.94
2023-04-25T21:25:06.620Z,94250.22
2023-04-25T21:27:33.445Z,94247.34
2023-04-25T21:30:00.457Z,94248.69
2023-04-25T21:32:27.548Z,94249.25
2023-04-25T21:34:54.650Z,94247.25
2023-04-25T21:37:21.705Z,94248.19
2023-04-25T21:39:51.512Z,94241.38
2023-04-25T21:42:18.213Z,94247.44
2023-04-25T21:44:45.241Z,94248.56
2023-04-25T21:47:13.233Z,94248.22
2023-04-25T21:49:39.953Z,94251.25
2023-04-25T21:52:07.135Z,94252.28
2023-04-25T21:54:34.385Z,94254.88
2023-04-25T21:57:01.188Z,94250.72
2023-04-25T21:59:28.249Z,94251.06
2023-04-25T22:01:55.584Z,94252.91
2023-04-25T22:04:22.499Z,94246.38
2023-04-25T22:06:50.204Z,94253.13
2023-04-25T22:09:16.958Z,94252.66
2023-04-25T22:11:43.786Z,94250.94
2023-04-25T22:14:10.523Z,94263.13
2023-04-25T22:16:37.822Z,94263.22
2023-04-25T22:19:04.743Z,94261.97
2023-04-25T22:21:31.627Z,94265.06
2023-04-25T22:23:58.296Z,94265.34
2023-04-25T22:26:25.537Z,94259.00
2023-04-25T22:28:52.519Z,94259.66
2023-04-25T22:31:19.615Z,94260.81
2023-04-25T22:33:47.345Z,94265.84
2023-04-25T22:36:15.504Z,94262.75
2023-04-25T22:38:42.523Z,94266.09
2023-04-25T22:41:09.283Z,94259.88
2023-04-25T22:43:39.579Z,94263.09
2023-04-25T22:46:07.611Z,94264.34
2023-04-25T22:48:35.590Z,94267.78
2023-04-25T22:51:03.331Z,94266.25
2023-04-25T22:53:30.177Z,94265.28
2023-04-25T22:55:58.368Z,94271.72
2023-04-25T22:58:25.080Z,94270.75
2023-04-25T23:00:51.856Z,94269.81
2023-04-25T23:03:19.921Z,94273.97
2023-04-25T23:05:46.738Z,94273.09
2023-04-25T23:08:13.759Z,94278.53
2023-04-25T23:10:40.979Z,94275.66
2023-04-25T23:13:11.864Z,94276.47
2023-04-25T23:15:39.691Z,94277.09
2023-04-25T23:18:06.604Z,94285.66
2023-04-25T23:20:34.718Z,94283.22
2023-04-25T23:23:01.812Z,94281.13
2023-04-25T23:25:28.530Z,94278.16
2023-04-25T23:27:55.642Z,94279.03
2023-04-25T23:30:22.928Z,94282.81
2023-04-25T23:32:49.817Z,94277.25
2023-04-25T23:35:16.692Z,94286.91
2023-04-25T23:37:44.128Z,94290.94
2023-04-25T23:40:11.350Z,94282.81
2023-04-25T23:42:38.503Z,94291.94
2023-04-25T23:45:07.130Z,94289.69
2023-04-25T23:47:34.518Z,94298.81
2023-04-25T23:50:01.403Z,94299.56
2023-04-25T23:52:28.543Z,94303.25
2023-04-25T23:54:55.489Z,94308.16
2023-04-25T23:57:22.365Z,94310.72
2023-04-25T23:59:50.962Z,94306.13
